N256VM SAZS-SCPC
Flight info
| Callsign | N256VM |
|---|---|
| Flight time | 0h 46m |
| Altitude | 10000 |
| Route | ALGIL1C ALGIL W32 CHP |
| Aircraft | SR22/L-SDGRY/S |
Departure
| Time | 2026-05-08 00:12 |
|---|---|
| Airport | Teniente Luis Candelaria International Airport (SAZS) |
Arrival
| Time | 2026-05-08 00:58 |
|---|---|
| Airport | Pucón Airport (SCPC) |
| Time | Latitude | Longitude | Altitude | Speed | Heading |
|---|---|---|---|---|---|
| 2026-05-07 23:34 | -41.14836 | -71.15576 | 2755 ft | 0 kts | 23° |
| 2026-05-08 00:04 | -41.14834 | -71.15540 | 2755 ft | 10 kts | 176° |
| 2026-05-08 00:05 | -41.14864 | -71.15619 | 2755 ft | 0 kts | 230° |
| 2026-05-08 00:05 | -41.14913 | -71.15629 | 2754 ft | 15 kts | 183° |
| 2026-05-08 00:05 | -41.15012 | -71.15614 | 2757 ft | 21 kts | 114° |
| 2026-05-08 00:05 | -41.15089 | -71.15393 | 2757 ft | 30 kts | 114° |
| 2026-05-08 00:06 | -41.15181 | -71.15125 | 2759 ft | 34 kts | 115° |
| 2026-05-08 00:06 | -41.15283 | -71.14835 | 2762 ft | 36 kts | 115° |
| 2026-05-08 00:06 | -41.15386 | -71.14538 | 2764 ft | 29 kts | 114° |
| 2026-05-08 00:06 | -41.15465 | -71.14484 | 2764 ft | 0 kts | 207° |
| 2026-05-08 00:10 | -41.15501 | -71.14506 | 2764 ft | 22 kts | 206° |
| 2026-05-08 00:10 | -41.15490 | -71.14713 | 2763 ft | 49 kts | 294° |
| 2026-05-08 00:10 | -41.15271 | -71.15370 | 2797 ft | 99 kts | 294° |
| 2026-05-08 00:11 | -41.14958 | -71.16307 | 2947 ft | 118 kts | 293° |
| 2026-05-08 00:11 | -41.14611 | -71.17337 | 3155 ft | 125 kts | 293° |
| 2026-05-08 00:11 | -41.14246 | -71.18409 | 3303 ft | 135 kts | 293° |
| 2026-05-08 00:11 | -41.13838 | -71.19612 | 3312 ft | 148 kts | 293° |
| 2026-05-08 00:12 | -41.13410 | -71.20856 | 3517 ft | 144 kts | 292° |
| 2026-05-08 00:12 | -41.13014 | -71.22014 | 3927 ft | 131 kts | 292° |
| 2026-05-08 00:12 | -41.12653 | -71.23079 | 4379 ft | 126 kts | 292° |
| 2026-05-08 00:12 | -41.12294 | -71.24137 | 4775 ft | 124 kts | 291° |
| 2026-05-08 00:13 | -41.11937 | -71.25173 | 5158 ft | 122 kts | 290° |
| 2026-05-08 00:13 | -41.11592 | -71.26180 | 5530 ft | 120 kts | 290° |
| 2026-05-08 00:13 | -41.11251 | -71.27182 | 5918 ft | 118 kts | 289° |
| 2026-05-08 00:13 | -41.10913 | -71.28172 | 6304 ft | 117 kts | 288° |
| 2026-05-08 00:14 | -41.10574 | -71.29171 | 6602 ft | 123 kts | 287° |
| 2026-05-08 00:14 | -41.10214 | -71.30234 | 6857 ft | 128 kts | 287° |
| 2026-05-08 00:14 | -41.09839 | -71.31334 | 7119 ft | 132 kts | 286° |
| 2026-05-08 00:14 | -41.09458 | -71.32455 | 7375 ft | 134 kts | 285° |
| 2026-05-08 00:15 | -41.09075 | -71.33577 | 7625 ft | 136 kts | 284° |
| 2026-05-08 00:15 | -41.08681 | -71.34731 | 7891 ft | 138 kts | 284° |
| 2026-05-08 00:15 | -41.08192 | -71.35859 | 8151 ft | 149 kts | 301° |
| 2026-05-08 00:15 | -41.07206 | -71.36521 | 8403 ft | 172 kts | 338° |
| 2026-05-08 00:16 | -41.05979 | -71.36251 | 8648 ft | 193 kts | 24° |
| 2026-05-08 00:16 | -41.05054 | -71.34976 | 8901 ft | 196 kts | 63° |
| 2026-05-08 00:16 | -41.04435 | -71.33367 | 9171 ft | 196 kts | 69° |
| 2026-05-08 00:16 | -41.03810 | -71.31747 | 9442 ft | 199 kts | 66° |
| 2026-05-08 00:17 | -41.03120 | -71.30133 | 9719 ft | 202 kts | 65° |
| 2026-05-08 00:17 | -41.02405 | -71.28532 | 9984 ft | 205 kts | 65° |
| 2026-05-08 00:17 | -41.01658 | -71.26840 | 10006 ft | 219 kts | 66° |
| 2026-05-08 00:17 | -41.00905 | -71.25032 | 10019 ft | 224 kts | 68° |
| 2026-05-08 00:18 | -41.00156 | -71.23209 | 10011 ft | 230 kts | 67° |
| 2026-05-08 00:18 | -40.99372 | -71.21327 | 10009 ft | 234 kts | 67° |
| 2026-05-08 00:18 | -40.98593 | -71.19455 | 10010 ft | 234 kts | 67° |
| 2026-05-08 00:18 | -40.97799 | -71.17552 | 10014 ft | 236 kts | 67° |
| 2026-05-08 00:19 | -40.97011 | -71.15648 | 10008 ft | 238 kts | 67° |
| 2026-05-08 00:19 | -40.96181 | -71.13752 | 10004 ft | 239 kts | 58° |
| 2026-05-08 00:19 | -40.94957 | -71.12268 | 9992 ft | 243 kts | 34° |
| 2026-05-08 00:19 | -40.93448 | -71.11305 | 9988 ft | 239 kts | 10° |
| 2026-05-08 00:20 | -40.91837 | -71.11027 | 9998 ft | 231 kts | 353° |
| 2026-05-08 00:20 | -40.90234 | -71.11131 | 10003 ft | 230 kts | 347° |
| 2026-05-08 00:20 | -40.88653 | -71.11276 | 10008 ft | 230 kts | 347° |
| 2026-05-08 00:20 | -40.87054 | -71.11416 | 9996 ft | 229 kts | 348° |
| 2026-05-08 00:21 | -40.85467 | -71.11535 | 9994 ft | 227 kts | 348° |
| 2026-05-08 00:21 | -40.83906 | -71.11646 | 9992 ft | 227 kts | 348° |
| 2026-05-08 00:21 | -40.82345 | -71.11762 | 10001 ft | 223 kts | 348° |
| 2026-05-08 00:21 | -40.80792 | -71.11890 | 9999 ft | 222 kts | 347° |
| 2026-05-08 00:22 | -40.79260 | -71.12017 | 10000 ft | 223 kts | 347° |
| 2026-05-08 00:22 | -40.77705 | -71.12141 | 10006 ft | 225 kts | 347° |
| 2026-05-08 00:22 | -40.76193 | -71.12256 | 10009 ft | 226 kts | 348° |
| 2026-05-08 00:22 | -40.74579 | -71.12379 | 10016 ft | 223 kts | 347° |
| 2026-05-08 00:23 | -40.73021 | -71.12508 | 10014 ft | 231 kts | 347° |
| 2026-05-08 00:23 | -40.71437 | -71.12627 | 9995 ft | 220 kts | 348° |
| 2026-05-08 00:23 | -40.69951 | -71.12731 | 10008 ft | 214 kts | 347° |
| 2026-05-08 00:23 | -40.68456 | -71.12850 | 10013 ft | 215 kts | 346° |
| 2026-05-08 00:24 | -40.66984 | -71.12973 | 10006 ft | 213 kts | 346° |
| 2026-05-08 00:24 | -40.65496 | -71.13090 | 9993 ft | 214 kts | 346° |
| 2026-05-08 00:24 | -40.63976 | -71.13217 | 9992 ft | 222 kts | 346° |
| 2026-05-08 00:24 | -40.62402 | -71.13346 | 9996 ft | 230 kts | 347° |
| 2026-05-08 00:25 | -40.60802 | -71.13478 | 10001 ft | 234 kts | 347° |
| 2026-05-08 00:25 | -40.59161 | -71.13607 | 9994 ft | 238 kts | 347° |
| 2026-05-08 00:25 | -40.57506 | -71.13732 | 9988 ft | 236 kts | 347° |
| 2026-05-08 00:25 | -40.55849 | -71.13851 | 9991 ft | 239 kts | 348° |
| 2026-05-08 00:26 | -40.54195 | -71.13814 | 9986 ft | 241 kts | 353° |
| 2026-05-08 00:26 | -40.52508 | -71.13684 | 9990 ft | 242 kts | 356° |
| 2026-05-08 00:26 | -40.50871 | -71.13507 | 9988 ft | 238 kts | 357° |
| 2026-05-08 00:26 | -40.49214 | -71.13321 | 9985 ft | 237 kts | 356° |
| 2026-05-08 00:27 | -40.47561 | -71.13157 | 9986 ft | 237 kts | 356° |
| 2026-05-08 00:27 | -40.45920 | -71.13010 | 9987 ft | 237 kts | 355° |
| 2026-05-08 00:27 | -40.44276 | -71.12870 | 9992 ft | 235 kts | 355° |
| 2026-05-08 00:27 | -40.42640 | -71.12730 | 9986 ft | 234 kts | 355° |
| 2026-05-08 00:28 | -40.41035 | -71.12590 | 9996 ft | 233 kts | 355° |
| 2026-05-08 00:28 | -40.39400 | -71.12455 | 9987 ft | 239 kts | 355° |
| 2026-05-08 00:28 | -40.37744 | -71.12317 | 10001 ft | 238 kts | 355° |
| 2026-05-08 00:28 | -40.36086 | -71.12173 | 9991 ft | 238 kts | 355° |
| 2026-05-08 00:29 | -40.34475 | -71.12027 | 9997 ft | 232 kts | 355° |
| 2026-05-08 00:29 | -40.32857 | -71.11890 | 9999 ft | 233 kts | 354° |
| 2026-05-08 00:29 | -40.31222 | -71.11757 | 9998 ft | 234 kts | 355° |
| 2026-05-08 00:29 | -40.29605 | -71.11626 | 10012 ft | 237 kts | 355° |
| 2026-05-08 00:30 | -40.27937 | -71.11492 | 9999 ft | 239 kts | 355° |
| 2026-05-08 00:30 | -40.26297 | -71.11348 | 9997 ft | 238 kts | 355° |
| 2026-05-08 00:30 | -40.24645 | -71.11199 | 9998 ft | 236 kts | 355° |
| 2026-05-08 00:30 | -40.22995 | -71.11054 | 9998 ft | 236 kts | 355° |
| 2026-05-08 00:31 | -40.21376 | -71.10919 | 9993 ft | 236 kts | 355° |
| 2026-05-08 00:31 | -40.19737 | -71.10783 | 9993 ft | 235 kts | 354° |
| 2026-05-08 00:31 | -40.18096 | -71.10650 | 9996 ft | 235 kts | 355° |
| 2026-05-08 00:31 | -40.16473 | -71.10512 | 9998 ft | 236 kts | 355° |
| 2026-05-08 00:32 | -40.14822 | -71.10372 | 10001 ft | 237 kts | 355° |
| 2026-05-08 00:32 | -40.13182 | -71.10233 | 9997 ft | 238 kts | 355° |
| 2026-05-08 00:32 | -40.11525 | -71.10093 | 9998 ft | 238 kts | 355° |
| 2026-05-08 00:32 | -40.09970 | -71.09940 | 9989 ft | 210 kts | 356° |
| 2026-05-08 00:33 | -40.08595 | -71.09789 | 9986 ft | 185 kts | 354° |
| 2026-05-08 00:33 | -40.07379 | -71.09674 | 9983 ft | 169 kts | 351° |
| 2026-05-08 00:33 | -40.06244 | -71.09581 | 9988 ft | 160 kts | 349° |
| 2026-05-08 00:33 | -40.05129 | -71.09633 | 9990 ft | 154 kts | 326° |
| 2026-05-08 00:34 | -40.04202 | -71.10214 | 9999 ft | 143 kts | 304° |
| 2026-05-08 00:34 | -40.03467 | -71.11003 | 10015 ft | 137 kts | 296° |
| 2026-05-08 00:34 | -40.02754 | -71.11796 | 9996 ft | 128 kts | 296° |
| 2026-05-08 00:34 | -40.02109 | -71.12484 | 9988 ft | 114 kts | 294° |
| 2026-05-08 00:35 | -40.01523 | -71.13111 | 9984 ft | 103 kts | 291° |
| 2026-05-08 00:35 | -40.00965 | -71.13773 | 10006 ft | 119 kts | 290° |
| 2026-05-08 00:35 | -40.00309 | -71.14568 | 10025 ft | 140 kts | 295° |
| 2026-05-08 00:35 | -39.99524 | -71.15473 | 10024 ft | 158 kts | 299° |
| 2026-05-08 00:36 | -39.98662 | -71.16418 | 10019 ft | 169 kts | 302° |
| 2026-05-08 00:36 | -39.97734 | -71.17406 | 10013 ft | 174 kts | 303° |
| 2026-05-08 00:36 | -39.96788 | -71.18404 | 10014 ft | 175 kts | 303° |
| 2026-05-08 00:36 | -39.95832 | -71.19418 | 10011 ft | 176 kts | 303° |
| 2026-05-08 00:37 | -39.94897 | -71.20414 | 10015 ft | 176 kts | 302° |
| 2026-05-08 00:37 | -39.93945 | -71.21444 | 10019 ft | 179 kts | 303° |
| 2026-05-08 00:37 | -39.92982 | -71.22486 | 10016 ft | 180 kts | 303° |
| 2026-05-08 00:38 | -39.91048 | -71.24566 | 10023 ft | 179 kts | 303° |
| 2026-05-08 00:38 | -39.90094 | -71.25602 | 10027 ft | 180 kts | 302° |
| 2026-05-08 00:38 | -39.89129 | -71.26651 | 10026 ft | 181 kts | 303° |
| 2026-05-08 00:38 | -39.88176 | -71.27676 | 10021 ft | 178 kts | 303° |
| 2026-05-08 00:39 | -39.87237 | -71.28676 | 10014 ft | 169 kts | 303° |
| 2026-05-08 00:39 | -39.86370 | -71.29600 | 10018 ft | 156 kts | 302° |
| 2026-05-08 00:39 | -39.85536 | -71.30515 | 10041 ft | 161 kts | 300° |
| 2026-05-08 00:39 | -39.84658 | -71.31487 | 10050 ft | 169 kts | 302° |
| 2026-05-08 00:40 | -39.83733 | -71.32493 | 10031 ft | 173 kts | 303° |
| 2026-05-08 00:40 | -39.82834 | -71.33445 | 10041 ft | 164 kts | 302° |
| 2026-05-08 00:40 | -39.81964 | -71.34353 | 10038 ft | 153 kts | 302° |
| 2026-05-08 00:40 | -39.81160 | -71.35200 | 10065 ft | 151 kts | 299° |
| 2026-05-08 00:41 | -39.80369 | -71.36076 | 10049 ft | 145 kts | 299° |
| 2026-05-08 00:41 | -39.79606 | -71.36904 | 10052 ft | 143 kts | 298° |
| 2026-05-08 00:41 | -39.78842 | -71.37739 | 10070 ft | 143 kts | 298° |
| 2026-05-08 00:41 | -39.78064 | -71.38602 | 10087 ft | 150 kts | 299° |
| 2026-05-08 00:42 | -39.77251 | -71.39503 | 10088 ft | 159 kts | 300° |
| 2026-05-08 00:42 | -39.76384 | -71.40446 | 10092 ft | 164 kts | 302° |
| 2026-05-08 00:42 | -39.75503 | -71.41394 | 10095 ft | 167 kts | 302° |
| 2026-05-08 00:42 | -39.74590 | -71.42372 | 10099 ft | 172 kts | 303° |
| 2026-05-08 00:43 | -39.73648 | -71.43387 | 10098 ft | 181 kts | 303° |
| 2026-05-08 00:43 | -39.72680 | -71.44440 | 10073 ft | 182 kts | 306° |
| 2026-05-08 00:43 | -39.71704 | -71.45448 | 10099 ft | 181 kts | 304° |
| 2026-05-08 00:43 | -39.70767 | -71.46488 | 10100 ft | 190 kts | 304° |
| 2026-05-08 00:44 | -39.69752 | -71.47601 | 10091 ft | 188 kts | 304° |
| 2026-05-08 00:44 | -39.69083 | -71.48305 | 10094 ft | 183 kts | 305° |
| 2026-05-08 00:44 | -39.67773 | -71.49669 | 10091 ft | 180 kts | 304° |
| 2026-05-08 00:44 | -39.66806 | -71.50693 | 10096 ft | 179 kts | 304° |
| 2026-05-08 00:45 | -39.65920 | -71.51649 | 10104 ft | 181 kts | 304° |
| 2026-05-08 00:45 | -39.64953 | -71.52702 | 9719 ft | 186 kts | 307° |
| 2026-05-08 00:45 | -39.63970 | -71.53787 | 9804 ft | 181 kts | 320° |
| 2026-05-08 00:45 | -39.63017 | -71.54792 | 9864 ft | 177 kts | 320° |
| 2026-05-08 00:46 | -39.62053 | -71.55805 | 9863 ft | 177 kts | 320° |
| 2026-05-08 00:46 | -39.61093 | -71.56830 | 9864 ft | 182 kts | 320° |
| 2026-05-08 00:46 | -39.60103 | -71.57902 | 9866 ft | 187 kts | 320° |
| 2026-05-08 00:46 | -39.59102 | -71.58980 | 9868 ft | 189 kts | 320° |
| 2026-05-08 00:47 | -39.58076 | -71.60074 | 9882 ft | 191 kts | 320° |
| 2026-05-08 00:47 | -39.57055 | -71.61162 | 9883 ft | 192 kts | 320° |
| 2026-05-08 00:47 | -39.56024 | -71.62263 | 9883 ft | 193 kts | 320° |
| 2026-05-08 00:47 | -39.54983 | -71.63368 | 9879 ft | 193 kts | 320° |
| 2026-05-08 00:48 | -39.53953 | -71.64472 | 9876 ft | 193 kts | 320° |
| 2026-05-08 00:48 | -39.52910 | -71.65590 | 9881 ft | 193 kts | 320° |
| 2026-05-08 00:48 | -39.51872 | -71.66701 | 9881 ft | 193 kts | 320° |
| 2026-05-08 00:48 | -39.50882 | -71.67754 | 9879 ft | 193 kts | 320° |
| 2026-05-08 00:49 | -39.49837 | -71.68866 | 9881 ft | 193 kts | 320° |
| 2026-05-08 00:49 | -39.48799 | -71.69976 | 9881 ft | 193 kts | 320° |
| 2026-05-08 00:49 | -39.47764 | -71.71079 | 9881 ft | 193 kts | 320° |
| 2026-05-08 00:49 | -39.46725 | -71.72186 | 9878 ft | 193 kts | 320° |
| 2026-05-08 00:50 | -39.45702 | -71.73280 | 9883 ft | 194 kts | 319° |
| 2026-05-08 00:50 | -39.44998 | -71.74034 | 9879 ft | 194 kts | 319° |
| 2026-05-08 00:50 | -39.43610 | -71.75516 | 9881 ft | 193 kts | 320° |
| 2026-05-08 00:50 | -39.42615 | -71.76559 | 9872 ft | 170 kts | 321° |
| 2026-05-08 00:51 | -39.41763 | -71.77435 | 9856 ft | 147 kts | 321° |
| 2026-05-08 00:51 | -39.41005 | -71.78228 | 9617 ft | 143 kts | 320° |
| 2026-05-08 00:51 | -39.40467 | -71.78803 | 9281 ft | 153 kts | 320° |
| 2026-05-08 00:51 | -39.39342 | -71.80014 | 8637 ft | 163 kts | 320° |
| 2026-05-08 00:52 | -39.38755 | -71.80644 | 8315 ft | 166 kts | 320° |
| 2026-05-08 00:52 | -39.37552 | -71.81932 | 7667 ft | 169 kts | 320° |
| 2026-05-08 00:52 | -39.36939 | -71.82586 | 7338 ft | 170 kts | 320° |
| 2026-05-08 00:52 | -39.35733 | -71.83866 | 6689 ft | 170 kts | 320° |
| 2026-05-08 00:53 | -39.35116 | -71.84519 | 6355 ft | 169 kts | 320° |
| 2026-05-08 00:53 | -39.34255 | -71.85431 | 5888 ft | 169 kts | 320° |
| 2026-05-08 00:53 | -39.33365 | -71.86373 | 5402 ft | 168 kts | 320° |
| 2026-05-08 00:53 | -39.32459 | -71.87333 | 4899 ft | 167 kts | 320° |
| 2026-05-08 00:54 | -39.31563 | -71.88280 | 4407 ft | 166 kts | 320° |
| 2026-05-08 00:54 | -39.30674 | -71.89220 | 3911 ft | 165 kts | 320° |
| 2026-05-08 00:54 | -39.29774 | -71.90171 | 3406 ft | 164 kts | 320° |
| 2026-05-08 00:54 | -39.28906 | -71.91090 | 2928 ft | 163 kts | 320° |
| 2026-05-08 00:55 | -39.28087 | -71.91952 | 2857 ft | 139 kts | 320° |
| 2026-05-08 00:55 | -39.27399 | -71.92669 | 2851 ft | 117 kts | 320° |
| 2026-05-08 00:55 | -39.26816 | -71.93280 | 2847 ft | 99 kts | 320° |
| 2026-05-08 00:55 | -39.26313 | -71.93812 | 2817 ft | 89 kts | 320° |
| 2026-05-08 00:56 | -39.25702 | -71.94104 | 2306 ft | 122 kts | 13° |
| 2026-05-08 00:56 | -39.25401 | -71.93106 | 1673 ft | 150 kts | 126° |
| 2026-05-08 00:56 | -39.26235 | -71.92566 | 1702 ft | 121 kts | 159° |
| 2026-05-08 00:56 | -39.26860 | -71.91831 | 1376 ft | 130 kts | 128° |
| 2026-05-08 00:57 | -39.27323 | -71.90855 | 1242 ft | 121 kts | 118° |
| 2026-05-08 00:57 | -39.27745 | -71.90033 | 1269 ft | 102 kts | 127° |
| 2026-05-08 00:57 | -39.28270 | -71.89562 | 1411 ft | 90 kts | 178° |
| 2026-05-08 00:57 | -39.28938 | -71.89683 | 1319 ft | 102 kts | 184° |
| 2026-05-08 00:58 | -39.29362 | -71.90316 | 1191 ft | 104 kts | 245° |
| 2026-05-08 00:58 | -39.29271 | -71.91352 | 887 ft | 115 kts | 281° |
| 2026-05-08 00:58 | -39.29147 | -71.92095 | 882 ft | 53 kts | 283° |
| 2026-05-08 00:58 | -39.29083 | -71.92229 | 882 ft | 17 kts | 41° |
| 2026-05-08 00:59 | -39.29031 | -71.92087 | 884 ft | 10 kts | 42° |
| 2026-05-08 00:59 | -39.29010 | -71.92122 | 884 ft | 0 kts | 268° |